createdAt,value
2022-09-13T00:00:50.666Z,100128.47
2022-09-13T00:03:19.956Z,100116.03
2022-09-13T00:05:48.760Z,100116.31
2022-09-13T00:08:18.103Z,100114.63
2022-09-13T00:10:47.417Z,100112.94
2022-09-13T00:13:18.004Z,100109.41
2022-09-13T00:15:48.775Z,100093.28
2022-09-13T00:18:18.024Z,100086.41
2022-09-13T00:20:46.333Z,100091.75
2022-09-13T00:23:14.580Z,100094.59
2022-09-13T00:25:42.478Z,100089.50
2022-09-13T00:28:10.624Z,100083.47
2022-09-13T00:30:39.894Z,100073.72
2022-09-13T00:33:07.817Z,100080.94
2022-09-13T00:35:35.967Z,100077.41
2022-09-13T00:38:03.842Z,100079.41
2022-09-13T00:40:31.754Z,100080.41
2022-09-13T00:42:59.902Z,100077.13
2022-09-13T00:45:28.012Z,100071.53
2022-09-13T00:48:02.066Z,100074.37
2022-09-13T00:50:34.352Z,100069.28
2022-09-13T00:53:06.547Z,100063.22
2022-09-13T00:55:41.197Z,100058.00
2022-09-13T00:58:13.680Z,100062.38
2022-09-13T01:00:42.034Z,100051.78
2022-09-13T01:03:15.907Z,100065.06
2022-09-13T01:05:48.910Z,100060.53
2022-09-13T01:08:22.834Z,100057.16
2022-09-13T01:10:53.266Z,100052.78
2022-09-13T01:13:26.741Z,100057.31
2022-09-13T01:15:55.148Z,100051.25
2022-09-13T01:18:24.843Z,100048.44
2022-09-13T01:21:26.332Z,100044.91
2022-09-13T01:24:30.448Z,100047.44
2022-09-13T01:27:17.339Z,100052.94
2022-09-13T01:30:10.916Z,100047.84
2022-09-13T01:32:54.224Z,100048.56
2022-09-13T01:35:29.975Z,100050.69
2022-09-13T01:38:07.363Z,100044.50
2022-09-13T01:40:52.425Z,100041.66
2022-09-13T01:43:31.419Z,100047.69
2022-09-13T01:46:06.334Z,100038.81
2022-09-13T01:48:46.993Z,100044.19
2022-09-13T01:51:22.489Z,100037.13
2022-09-13T01:53:59.023Z,100033.06
2022-09-13T01:56:34.642Z,100031.38
2022-09-13T01:59:07.547Z,100024.47
2022-09-13T02:01:43.124Z,100011.19
2022-09-13T02:04:14.911Z,100017.56
2022-09-13T02:06:46.740Z,100006.66
2022-09-13T02:09:21.282Z,99998.78
2022-09-13T02:11:53.518Z,99995.41
2022-09-13T02:14:25.843Z,99990.88
2022-09-13T02:17:02.344Z,99983.97
2022-09-13T02:19:36.727Z,99990.34
2022-09-13T02:22:07.659Z,99982.56
2022-09-13T02:24:40.506Z,99983.56
2022-09-13T02:27:13.248Z,99983.72
2022-09-13T02:29:45.375Z,99981.03
2022-09-13T02:32:19.118Z,99978.53
2022-09-13T02:34:52.492Z,99966.25
2022-09-13T02:37:21.286Z,99956.37
2022-09-13T02:39:55.403Z,99950.31
2022-09-13T02:42:29.814Z,99952.84
2022-09-13T02:44:59.765Z,99957.38
2022-09-13T02:47:40.635Z,99958.38
2022-09-13T02:50:20.865Z,99958.38
2022-09-13T02:52:59.819Z,99961.31
2022-09-13T02:55:34.320Z,99962.31
2022-09-13T02:58:08.117Z,99966.69
2022-09-13T03:00:36.937Z,99957.13
2022-09-13T03:03:09.864Z,99961.09
2022-09-13T03:05:38.127Z,99940.66
2022-09-13T03:08:10.516Z,99947.84
2022-09-13T03:10:49.668Z,99937.25
2022-09-13T03:13:45.240Z,99936.56
2022-09-13T03:16:27.836Z,99939.41
2022-09-13T03:19:09.785Z,99953.78
2022-09-13T03:21:54.293Z,99948.03
2022-09-13T03:24:26.985Z,99949.03
2022-09-13T03:27:10.415Z,99953.00
2022-09-13T03:29:46.704Z,99945.97
2022-09-13T03:32:25.589Z,99939.50
2022-09-13T03:35:03.109Z,99936.97
2022-09-13T03:37:37.235Z,99936.44
2022-09-13T03:40:10.821Z,99936.12
2022-09-13T03:42:45.300Z,99920.47
2022-09-13T03:45:16.150Z,99923.88
2022-09-13T03:47:47.804Z,99919.50
2022-09-13T03:50:22.084Z,99917.69
2022-09-13T03:52:56.095Z,99917.53
2022-09-13T03:55:25.866Z,99918.22
2022-09-13T03:57:54.356Z,99909.72
2022-09-13T04:00:22.865Z,99911.31
2022-09-13T04:02:51.065Z,99910.16
2022-09-13T04:05:20.477Z,99919.56
2022-09-13T04:07:48.378Z,99922.81
2022-09-13T04:10:16.668Z,99914.31
2022-09-13T04:12:44.467Z,99909.53
2022-09-13T04:15:12.379Z,99918.25
2022-09-13T04:17:40.452Z,99921.62
2022-09-13T04:20:08.988Z,99919.78
2022-09-13T04:22:38.173Z,99917.94
2022-09-13T04:25:07.678Z,99912.56
2022-09-13T04:27:35.878Z,99917.63
2022-09-13T04:30:04.174Z,99913.94
2022-09-13T04:32:32.395Z,99919.88
2022-09-13T04:35:00.254Z,99911.38
2022-09-13T04:37:28.136Z,99903.72
2022-09-13T04:39:58.741Z,99904.41
2022-09-13T04:42:26.624Z,99895.34
2022-09-13T04:44:55.089Z,99902.66
2022-09-13T04:47:23.301Z,99905.88
2022-09-13T04:49:51.183Z,99899.91
2022-09-13T04:52:19.048Z,99893.38
2022-09-13T04:54:47.741Z,99892.38
2022-09-13T04:57:17.794Z,99891.94
2022-09-13T04:59:45.627Z,99904.03
2022-09-13T05:02:13.734Z,99890.62
2022-09-13T05:04:41.662Z,99893.69
2022-09-13T05:07:09.591Z,99900.59
2022-09-13T05:09:37.730Z,99895.59
2022-09-13T05:12:08.787Z,99882.84
2022-09-13T05:14:38.115Z,99883.25
2022-09-13T05:17:06.613Z,99879.16
2022-09-13T05:19:34.951Z,99881.22
2022-09-13T05:22:02.876Z,99884.97
2022-09-13T05:24:31.141Z,99874.75
2022-09-13T05:26:58.975Z,99877.28
2022-09-13T05:29:26.859Z,99877.50
2022-09-13T05:31:56.242Z,99885.91
2022-09-13T05:34:24.291Z,99882.59
2022-09-13T05:36:54.380Z,99891.88
2022-09-13T05:39:43.624Z,99893.06
2022-09-13T05:42:10.710Z,99898.66
2022-09-13T05:44:38.898Z,99899.69
2022-09-13T05:47:08.214Z,99903.75
2022-09-13T05:49:49.803Z,99904.28
2022-09-13T05:52:24.146Z,99910.06
2022-09-13T05:54:52.241Z,99913.09
2022-09-13T05:57:20.109Z,99911.06
2022-09-13T05:59:48.506Z,99928.06
2022-09-13T06:02:17.692Z,99922.94
2022-09-13T06:04:45.830Z,99918.56
2022-09-13T06:07:13.788Z,99931.16
2022-09-13T06:09:41.655Z,99924.81
2022-09-13T06:12:09.699Z,99926.47
2022-09-13T06:14:37.599Z,99915.59
2022-09-13T06:17:05.615Z,99909.87
2022-09-13T06:19:35.236Z,99900.66
2022-09-13T06:22:03.098Z,99894.81
2022-09-13T06:24:31.011Z,99906.22
2022-09-13T06:26:59.540Z,99904.22
2022-09-13T06:29:27.399Z,99907.41
2022-09-13T06:31:55.328Z,99895.34
2022-09-13T06:34:25.146Z,99905.94
2022-09-13T06:36:57.293Z,99903.75
2022-09-13T06:39:25.477Z,99896.34
2022-09-13T06:41:53.451Z,99894.37
2022-09-13T06:44:25.905Z,99889.50
2022-09-13T06:46:54.001Z,99900.94
2022-09-13T06:49:21.805Z,99900.63
2022-09-13T06:51:49.740Z,99896.75
2022-09-13T06:54:19.390Z,99895.59
2022-09-13T06:56:47.430Z,99885.31
2022-09-13T06:59:15.479Z,99887.72
2022-09-13T07:01:44.776Z,99880.97
2022-09-13T07:04:14.265Z,99870.72
2022-09-13T07:06:44.048Z,99883.19
2022-09-13T07:09:14.398Z,99888.41
2022-09-13T07:11:43.885Z,99891.94
2022-09-13T07:14:14.739Z,99879.81
2022-09-13T07:16:43.063Z,99878.16
2022-09-13T07:19:15.873Z,99881.75
2022-09-13T07:21:44.723Z,99879.91
2022-09-13T07:24:13.367Z,99877.19
2022-09-13T07:26:42.550Z,99880.06
2022-09-13T07:29:13.582Z,99890.50
2022-09-13T07:31:43.137Z,99877.84
2022-09-13T07:34:14.919Z,99883.41
2022-09-13T07:36:43.386Z,99883.53
2022-09-13T07:39:15.677Z,99877.47
2022-09-13T07:41:48.196Z,99874.72
2022-09-13T07:44:16.584Z,99877.38
2022-09-13T07:46:44.476Z,99876.28
2022-09-13T07:49:14.028Z,99884.13
2022-09-13T07:51:44.032Z,99892.00
2022-09-13T07:54:13.981Z,99888.19
2022-09-13T07:56:42.736Z,99885.53
2022-09-13T07:59:15.049Z,99886.63
2022-09-13T08:01:45.099Z,99878.94
2022-09-13T08:04:17.260Z,99882.06
2022-09-13T08:06:46.475Z,99887.84
2022-09-13T08:09:15.971Z,99889.56
2022-09-13T08:11:45.621Z,99886.87
2022-09-13T08:14:16.620Z,99890.59
2022-09-13T08:16:44.921Z,99898.75
2022-09-13T08:19:15.232Z,99889.63
2022-09-13T08:21:44.004Z,99891.00
2022-09-13T08:24:15.928Z,99891.56
2022-09-13T08:26:44.249Z,99891.63
2022-09-13T08:29:13.349Z,99886.63
2022-09-13T08:31:43.563Z,99881.97
2022-09-13T08:34:12.596Z,99885.19
2022-09-13T08:36:41.732Z,99888.00
2022-09-13T08:39:12.706Z,99895.09
2022-09-13T08:42:10.434Z,99885.13
2022-09-13T08:44:46.225Z,99885.00
2022-09-13T08:47:32.524Z,99880.69
2022-09-13T08:50:07.511Z,99885.28
2022-09-13T08:52:46.445Z,99884.88
2022-09-13T08:55:26.047Z,99876.63
2022-09-13T08:57:58.798Z,99875.81
2022-09-13T09:00:32.639Z,99869.13
2022-09-13T09:03:17.983Z,99869.66
2022-09-13T09:05:48.994Z,99860.97
2022-09-13T09:08:31.170Z,99869.88
2022-09-13T09:11:03.441Z,99871.22
2022-09-13T09:13:35.958Z,99869.09
2022-09-13T09:16:11.814Z,99862.69
2022-09-13T09:18:44.659Z,99866.44
2022-09-13T09:21:17.436Z,99859.59
2022-09-13T09:23:51.846Z,99864.00
2022-09-13T09:26:21.979Z,99858.59
2022-09-13T09:28:52.026Z,99854.84
2022-09-13T09:31:32.325Z,99856.09
2022-09-13T09:34:15.484Z,99856.34
2022-09-13T09:36:48.279Z,99866.56
2022-09-13T09:39:17.065Z,99856.16
2022-09-13T09:41:45.807Z,99862.84
2022-09-13T09:44:20.215Z,99867.03
2022-09-13T09:46:51.747Z,99852.81
2022-09-13T09:49:45.144Z,99853.94
2022-09-13T09:52:18.638Z,99850.81
2022-09-13T09:54:47.431Z,99830.97
2022-09-13T09:57:15.927Z,99834.34
2022-09-13T09:59:43.869Z,99823.84
2022-09-13T10:02:18.562Z,99824.44
2022-09-13T10:04:57.759Z,99833.59
2022-09-13T10:07:33.289Z,99822.56
2022-09-13T10:10:06.387Z,99817.13
2022-09-13T10:12:37.083Z,99822.72
2022-09-13T10:15:17.480Z,99825.44
2022-09-13T10:18:03.096Z,99820.97
2022-09-13T10:20:33.253Z,99814.69
2022-09-13T10:23:12.626Z,99810.37
2022-09-13T10:25:47.698Z,99810.34
2022-09-13T10:28:19.841Z,99811.53
2022-09-13T10:30:53.312Z,99819.97
2022-09-13T10:33:27.747Z,99817.25
2022-09-13T10:35:59.442Z,99810.97
2022-09-13T10:38:32.699Z,99821.62
2022-09-13T10:41:04.326Z,99816.06
2022-09-13T10:43:33.570Z,99823.84
2022-09-13T10:46:05.613Z,99813.13
2022-09-13T10:48:46.472Z,99812.88
2022-09-13T10:51:29.798Z,99802.53
2022-09-13T10:54:10.521Z,99799.22
2022-09-13T10:56:39.314Z,99802.06
2022-09-13T10:59:21.921Z,99802.84
2022-09-13T11:02:06.748Z,99801.88
2022-09-13T11:05:10.410Z,99798.28
2022-09-13T11:08:24.311Z,99787.06
2022-09-13T11:11:02.704Z,99790.63
2022-09-13T11:13:45.584Z,99780.72
2022-09-13T11:16:29.850Z,99781.06
2022-09-13T11:19:37.446Z,99781.84
2022-09-13T11:22:22.891Z,99776.66
2022-09-13T11:25:03.015Z,99771.78
2022-09-13T11:27:38.691Z,99766.41
2022-09-13T11:30:13.652Z,99763.72
2022-09-13T11:32:57.800Z,99758.72
2022-09-13T11:35:37.683Z,99744.56
2022-09-13T11:38:20.982Z,99747.53
2022-09-13T11:40:59.865Z,99748.13
2022-09-13T11:43:47.361Z,99740.31
2022-09-13T11:46:24.743Z,99734.84
2022-09-13T11:49:22.963Z,99729.75
2022-09-13T11:52:03.012Z,99733.09
2022-09-13T11:54:47.883Z,99733.00
2022-09-13T11:57:22.677Z,99733.69
2022-09-13T11:59:55.012Z,99738.97
2022-09-13T12:02:29.530Z,99744.00
2022-09-13T12:05:21.466Z,99753.81
2022-09-13T12:07:54.894Z,99741.97
2022-09-13T12:10:26.170Z,99746.38
2022-09-13T12:12:58.219Z,99743.78
2022-09-13T12:15:35.256Z,99737.81
2022-09-13T12:18:07.822Z,99736.25
2022-09-13T12:20:39.374Z,99730.69
2022-09-13T12:23:15.924Z,99721.63
2022-09-13T12:25:52.154Z,99718.16
2022-09-13T12:28:27.376Z,99714.97
2022-09-13T12:31:00.416Z,99712.22
2022-09-13T12:33:28.636Z,99704.50
2022-09-13T12:36:33.429Z,99704.75
2022-09-13T12:39:24.752Z,99708.31
2022-09-13T12:42:19.974Z,99710.34
2022-09-13T12:45:06.932Z,99706.53
2022-09-13T12:47:57.099Z,99702.13
2022-09-13T12:50:50.618Z,99694.28
2022-09-13T12:53:45.178Z,99697.63
2022-09-13T12:56:29.591Z,99698.69
2022-09-13T12:59:26.421Z,99703.19
2022-09-13T13:01:57.263Z,99699.97
2022-09-13T13:04:29.943Z,99695.72
2022-09-13T13:07:01.220Z,99698.22
2022-09-13T13:09:41.069Z,99695.13
2022-09-13T13:12:10.525Z,99700.34
2022-09-13T13:14:55.643Z,99699.38
2022-09-13T13:17:53.059Z,99701.38
2022-09-13T13:20:41.102Z,99691.94
2022-09-13T13:23:21.879Z,99687.38
2022-09-13T13:26:02.654Z,99679.56
2022-09-13T13:29:06.391Z,99688.50
2022-09-13T13:31:38.332Z,99682.31
2022-09-13T13:34:29.962Z,99677.06
2022-09-13T13:37:02.238Z,99674.56
2022-09-13T13:39:39.794Z,99672.06
2022-09-13T13:42:25.392Z,99660.94
2022-09-13T13:45:16.846Z,99659.03
2022-09-13T13:48:15.262Z,99664.09
2022-09-13T13:51:15.256Z,99658.69
2022-09-13T13:53:47.374Z,99658.94
2022-09-13T13:56:30.656Z,99655.75
2022-09-13T13:59:05.520Z,99657.44
2022-09-13T14:01:36.998Z,99655.91
2022-09-13T14:04:38.054Z,99658.75
2022-09-13T14:07:20.298Z,99651.37
2022-09-13T14:09:58.676Z,99655.59
2022-09-13T14:12:41.452Z,99659.06
2022-09-13T14:15:35.187Z,99664.56
2022-09-13T14:18:32.451Z,99663.22
2022-09-13T14:21:05.746Z,99668.91
2022-09-13T14:23:35.310Z,99666.78
2022-09-13T14:26:06.968Z,99671.69
2022-09-13T14:28:35.511Z,99676.53
2022-09-13T14:31:04.087Z,99678.19
2022-09-13T14:33:36.447Z,99694.31
2022-09-13T14:36:08.028Z,99678.91
2022-09-13T14:38:37.566Z,99677.75
2022-09-13T14:41:15.644Z,99682.06
2022-09-13T14:43:44.588Z,99680.03
2022-09-13T14:46:18.349Z,99672.31
2022-09-13T14:48:51.500Z,99667.44
2022-09-13T14:51:25.936Z,99663.94
2022-09-13T14:54:00.443Z,99664.47
2022-09-13T14:56:39.080Z,99658.09
2022-09-13T14:59:15.387Z,99660.38
2022-09-13T15:01:43.485Z,99649.69
2022-09-13T15:04:11.605Z,99646.84
2022-09-13T15:06:42.564Z,99639.03
2022-09-13T15:09:29.271Z,99641.66
2022-09-13T15:11:59.527Z,99652.31
2022-09-13T15:14:31.168Z,99652.25
2022-09-13T15:17:01.991Z,99661.69
2022-09-13T15:19:32.863Z,99665.25
2022-09-13T15:22:15.274Z,99678.81
2022-09-13T15:24:48.077Z,99668.72
2022-09-13T15:27:27.151Z,99669.50
2022-09-13T15:29:57.789Z,99669.56
2022-09-13T15:32:32.692Z,99662.06
2022-09-13T15:35:02.783Z,99659.22
2022-09-13T15:37:34.394Z,99654.97
2022-09-13T15:40:20.191Z,99662.69
2022-09-13T15:42:49.870Z,99665.28
2022-09-13T15:45:19.140Z,99662.16
2022-09-13T15:47:48.172Z,99661.22
2022-09-13T15:50:28.299Z,99665.78
2022-09-13T15:52:56.813Z,99671.19
2022-09-13T15:55:27.233Z,99679.03
2022-09-13T15:57:55.575Z,99671.94
2022-09-13T16:00:26.227Z,99665.06
2022-09-13T16:02:54.696Z,99662.84
2022-09-13T16:05:22.744Z,99657.63
2022-09-13T16:07:50.686Z,99666.09
2022-09-13T16:10:22.211Z,99673.25
2022-09-13T16:12:51.507Z,99677.31
2022-09-13T16:15:19.758Z,99671.50
2022-09-13T16:17:47.676Z,99668.22
2022-09-13T16:20:17.009Z,99682.06
2022-09-13T16:22:45.012Z,99670.72
2022-09-13T16:25:14.034Z,99670.38
2022-09-13T16:27:42.742Z,99673.66
2022-09-13T16:30:15.052Z,99673.87
2022-09-13T16:32:43.793Z,99670.53
2022-09-13T16:35:13.021Z,99666.37
2022-09-13T16:37:41.410Z,99677.19
2022-09-13T16:40:11.032Z,99673.22
2022-09-13T16:42:39.275Z,99676.00
2022-09-13T16:45:08.121Z,99677.47
2022-09-13T16:47:37.757Z,99664.34
2022-09-13T16:50:07.388Z,99666.22
2022-09-13T16:52:36.126Z,99666.09
2022-09-13T16:55:05.036Z,99665.94
2022-09-13T16:57:32.971Z,99665.53
2022-09-13T17:00:03.264Z,99662.59
2022-09-13T17:02:31.767Z,99667.88
2022-09-13T17:05:01.303Z,99660.56
2022-09-13T17:07:29.171Z,99669.66
2022-09-13T17:09:57.636Z,99662.03
2022-09-13T17:12:25.518Z,99668.53
2022-09-13T17:14:54.861Z,99674.22
2022-09-13T17:17:23.012Z,99675.28
2022-09-13T17:19:50.941Z,99671.56
2022-09-13T17:22:20.145Z,99673.06
2022-09-13T17:24:48.530Z,99670.09
2022-09-13T17:27:16.404Z,99672.03
2022-09-13T17:29:44.336Z,99670.16
2022-09-13T17:32:12.418Z,99669.31
2022-09-13T17:34:40.294Z,99667.47
2022-09-13T17:37:08.299Z,99675.41
2022-09-13T17:39:38.116Z,99662.88
2022-09-13T17:42:06.444Z,99667.91
2022-09-13T17:44:34.344Z,99669.38
2022-09-13T17:47:02.470Z,99666.22
2022-09-13T17:49:30.362Z,99667.47
2022-09-13T17:51:58.256Z,99661.22
2022-09-13T17:54:27.036Z,99662.47
2022-09-13T17:56:56.226Z,99669.75
2022-09-13T17:59:24.029Z,99669.94
2022-09-13T18:01:54.470Z,99668.09
2022-09-13T18:04:24.242Z,99664.91
2022-09-13T18:06:52.457Z,99672.19
2022-09-13T18:09:20.915Z,99682.38
2022-09-13T18:11:49.575Z,99676.50
2022-09-13T18:14:20.099Z,99679.59
2022-09-13T18:16:55.305Z,99676.22
2022-09-13T18:19:44.355Z,99679.75
2022-09-13T18:22:11.727Z,99685.12
2022-09-13T18:24:39.956Z,99677.38
2022-09-13T18:27:07.984Z,99681.06
2022-09-13T18:29:37.531Z,99691.88
2022-09-13T18:32:05.554Z,99680.34
2022-09-13T18:34:33.433Z,99685.53
2022-09-13T18:37:01.496Z,99674.63
2022-09-13T18:39:29.390Z,99677.53
2022-09-13T18:41:57.227Z,99688.78
2022-09-13T18:44:25.408Z,99686.47
2022-09-13T18:46:54.567Z,99679.75
2022-09-13T18:49:22.517Z,99685.53
2022-09-13T18:51:50.868Z,99692.31
2022-09-13T18:54:19.714Z,99688.87
2022-09-13T18:56:48.314Z,99691.78
2022-09-13T18:59:16.940Z,99694.91
2022-09-13T19:01:45.792Z,99700.72
2022-09-13T19:04:18.394Z,99694.63
2022-09-13T19:06:48.843Z,99712.56
2022-09-13T19:09:17.742Z,99708.44
2022-09-13T19:11:48.714Z,99704.28
2022-09-13T19:14:20.198Z,99706.63
2022-09-13T19:16:48.371Z,99705.59
2022-09-13T19:19:17.868Z,99712.47
2022-09-13T19:21:46.066Z,99710.59
2022-09-13T19:24:18.347Z,99706.22
2022-09-13T19:26:48.584Z,99700.19
2022-09-13T19:29:18.542Z,99705.97
2022-09-13T19:31:49.207Z,99701.56
2022-09-13T19:34:21.390Z,99711.56
2022-09-13T19:36:52.483Z,99713.44
2022-09-13T19:39:23.809Z,99713.22
2022-09-13T19:41:53.713Z,99718.00
2022-09-13T19:44:22.871Z,99720.03
2022-09-13T19:47:06.903Z,99720.63
2022-09-13T19:49:40.878Z,99733.31
2022-09-13T19:52:08.762Z,99734.59
2022-09-13T19:54:39.803Z,99740.00
2022-09-13T19:57:09.488Z,99730.22
2022-09-13T19:59:37.368Z,99734.41
2022-09-13T20:02:06.026Z,99730.50
2022-09-13T20:04:34.233Z,99730.28
2022-09-13T20:07:03.563Z,99732.59
2022-09-13T20:09:31.819Z,99733.03
2022-09-13T20:12:00.686Z,99729.50
2022-09-13T20:14:28.871Z,99729.31
2022-09-13T20:16:57.185Z,99723.72
2022-09-13T20:19:44.830Z,99720.38
2022-09-13T20:22:14.825Z,99714.28
2022-09-13T20:24:44.070Z,99715.59
2022-09-13T20:27:12.369Z,99711.37
2022-09-13T20:29:40.383Z,99715.78
2022-09-13T20:32:09.482Z,99712.03
2022-09-13T20:34:37.792Z,99722.03
2022-09-13T20:37:05.845Z,99726.50
2022-09-13T20:39:35.414Z,99727.53
2022-09-13T20:42:03.715Z,99717.91
2022-09-13T20:44:31.540Z,99714.19
2022-09-13T20:47:01.740Z,99714.34
2022-09-13T20:49:30.284Z,99714.56
2022-09-13T20:51:58.163Z,99710.16
2022-09-13T20:54:26.305Z,99720.16
2022-09-13T20:56:55.556Z,99727.25
2022-09-13T20:59:23.443Z,99716.41
2022-09-13T21:01:51.773Z,99718.50
2022-09-13T21:04:19.847Z,99732.19
2022-09-13T21:07:05.652Z,99727.00
2022-09-13T21:09:33.769Z,99723.44
2022-09-13T21:12:03.421Z,99727.19
2022-09-13T21:14:33.957Z,99719.25
2022-09-13T21:17:06.650Z,99715.91
2022-09-13T21:19:34.790Z,99716.94
2022-09-13T21:22:03.397Z,99714.62
2022-09-13T21:24:31.500Z,99721.25
2022-09-13T21:26:59.416Z,99716.25
2022-09-13T21:29:29.053Z,99720.19
2022-09-13T21:31:56.956Z,99717.19
2022-09-13T21:34:27.239Z,99713.22
2022-09-13T21:36:55.856Z,99717.31
2022-09-13T21:39:24.299Z,99719.37
2022-09-13T21:41:52.295Z,99723.53
2022-09-13T21:44:20.417Z,99730.34
2022-09-13T21:46:51.402Z,99733.22
2022-09-13T21:49:19.337Z,99734.25
2022-09-13T21:51:49.806Z,99735.31
2022-09-13T21:54:19.577Z,99733.00
2022-09-13T21:56:51.103Z,99731.88
2022-09-13T21:59:20.878Z,99730.75
2022-09-13T22:01:52.303Z,99744.28
2022-09-13T22:04:22.788Z,99738.41
2022-09-13T22:06:53.581Z,99737.38
2022-09-13T22:09:23.393Z,99733.66
2022-09-13T22:11:51.438Z,99730.47
2022-09-13T22:14:21.992Z,99724.41
2022-09-13T22:16:53.197Z,99726.84
2022-09-13T22:19:23.529Z,99719.13
2022-09-13T22:21:55.763Z,99716.78
2022-09-13T22:24:25.655Z,99724.25
2022-09-13T22:26:55.320Z,99720.84
2022-09-13T22:29:24.106Z,99717.66
2022-09-13T22:31:53.312Z,99722.78
2022-09-13T22:34:23.995Z,99719.16
2022-09-13T22:36:53.905Z,99728.19
2022-09-13T22:39:22.107Z,99716.84
2022-09-13T22:41:50.232Z,99717.59
2022-09-13T22:44:18.089Z,99726.59
2022-09-13T22:46:47.307Z,99728.34
2022-09-13T22:49:18.806Z,99724.69
2022-09-13T22:51:48.364Z,99724.63
2022-09-13T22:54:18.014Z,99722.66
2022-09-13T22:56:46.156Z,99719.66
2022-09-13T22:59:15.945Z,99724.59
2022-09-13T23:01:44.099Z,99716.22
2022-09-13T23:04:12.732Z,99717.75
2022-09-13T23:06:44.705Z,99722.88
2022-09-13T23:09:15.204Z,99724.25
2022-09-13T23:11:43.211Z,99724.44
2022-09-13T23:14:13.131Z,99727.97
2022-09-13T23:16:43.930Z,99719.50
2022-09-13T23:19:13.576Z,99720.72
2022-09-13T23:21:44.026Z,99725.47
2022-09-13T23:24:14.189Z,99716.72
2022-09-13T23:26:43.104Z,99718.91
2022-09-13T23:29:13.790Z,99717.25
2022-09-13T23:31:42.529Z,99718.91
2022-09-13T23:34:12.626Z,99720.63
2022-09-13T23:36:43.986Z,99718.59
2022-09-13T23:39:16.343Z,99711.13
2022-09-13T23:41:44.596Z,99713.47
2022-09-13T23:44:12.803Z,99713.13
2022-09-13T23:46:40.848Z,99706.69
2022-09-13T23:49:08.792Z,99706.88
2022-09-13T23:51:36.893Z,99710.75
2022-09-13T23:54:06.318Z,99702.66
2022-09-13T23:56:35.682Z,99695.59
2022-09-13T23:59:05.121Z,99692.25
